Time;durP1;ratioP1;P1;durP2;ratioP2;P2;SDS_P1;SDS_P2;PMS_P1;PMS_P2;Temp;Humidity;BMP_temperature;BMP_pressure;BME280_temperature;BME280_humidity;BME280_pressure;Samples;Min_cycle;Max_cycle;Signal;HPM_P1;HPM_P2
2021/04/29 00:01:14;;;;;;;12.97;7.53;;;11.40;99.90;;;;;;5092371;28;20105;-81
2021/04/29 00:03:41;;;;;;;11.60;7.47;;;11.50;99.90;;;;;;5092526;28;20035;-81
2021/04/29 00:06:07;;;;;;;13.13;7.57;;;11.50;99.90;;;;;;5092212;28;20036;-81
2021/04/29 00:08:34;;;;;;;9.17;6.50;;;11.60;99.90;;;;;;5092564;28;20042;-81
2021/04/29 00:11:00;;;;;;;11.70;6.10;;;11.60;99.90;;;;;;5092536;28;20055;-81
2021/04/29 00:13:25;;;;;;;8.77;5.73;;;11.60;99.90;;;;;;5092037;28;20032;-81
2021/04/29 00:15:51;;;;;;;9.77;5.90;;;11.70;99.90;;;;;;5092261;28;20074;-81
2021/04/29 00:18:18;;;;;;;10.67;6.33;;;11.70;99.90;;;;;;5092115;28;20097;-81
2021/04/29 00:20:44;;;;;;;11.23;6.03;;;11.70;99.90;;;;;;5073742;28;20118;-81
2021/04/29 00:23:10;;;;;;;10.63;6.00;;;11.70;99.90;;;;;;5091521;28;20106;-81
2021/04/29 00:25:35;;;;;;;7.50;5.77;;;11.70;99.90;;;;;;5091560;28;20028;-81
2021/04/29 00:28:01;;;;;;;8.55;6.28;;;11.70;99.90;;;;;;5091688;28;20032;-80
2021/04/29 00:30:26;;;;;;;6.27;4.93;;;11.70;99.90;;;;;;5091213;28;20538;-81
2021/04/29 00:32:52;;;;;;;6.20;4.90;;;11.80;99.90;;;;;;5091624;28;20499;-81
2021/04/29 00:35:18;;;;;;;10.68;4.85;;;11.80;99.90;;;;;;5091072;28;20028;-81
2021/04/29 00:37:43;;;;;;;6.40;4.70;;;11.80;99.90;;;;;;5091353;28;20028;-81
2021/04/29 00:40:09;;;;;;;6.90;4.68;;;11.80;99.90;;;;;;5090943;28;20085;-81
2021/04/29 00:42:39;;;;;;;10.45;5.03;;;11.90;99.90;;;;;;5093866;28;20039;-81
2021/04/29 00:45:07;;;;;;;5.63;3.88;;;11.90;99.90;;;;;;5089642;28;20358;-81
2021/04/29 00:47:33;;;;;;;8.80;4.43;;;11.90;99.90;;;;;;5114099;28;20027;-81
2021/04/29 00:49:59;;;;;;;6.27;4.33;;;11.80;99.90;;;;;;5091600;28;20035;-81
2021/04/29 00:52:25;;;;;;;4.57;4.07;;;11.90;99.90;;;;;;5112939;28;20023;-81
2021/04/29 00:54:51;;;;;;;5.18;4.15;;;12.00;99.90;;;;;;5109211;28;20024;-81
2021/04/29 00:57:16;;;;;;;7.77;4.13;;;12.00;99.90;;;;;;5110666;28;20102;-81
2021/04/29 00:59:42;;;;;;;6.93;3.85;;;12.00;99.90;;;;;;5077055;28;20035;-80
2021/04/29 01:02:08;;;;;;;5.40;3.93;;;12.00;99.90;;;;;;5105846;28;20035;-80
2021/04/29 01:04:46;;;;;;;5.80;4.53;;;12.00;99.90;;;;;;5084325;28;20062;-81
2021/04/29 01:07:14;;;;;;;8.70;5.07;;;12.00;99.90;;;;;;5093579;28;20141;-80
2021/04/29 01:09:50;;;;;;;7.37;4.40;;;11.90;99.90;;;;;;5102912;28;20035;-81
2021/04/29 01:12:23;;;;;;;6.27;4.07;;;11.90;99.90;;;;;;5111391;28;20107;-81
2021/04/29 01:14:52;;;;;;;5.57;3.92;;;11.90;99.90;;;;;;5092955;28;20044;-81
2021/04/29 01:17:18;;;;;;;8.50;5.22;;;11.90;99.90;;;;;;5111146;28;20024;-81
2021/04/29 01:19:54;;;;;;;9.47;5.03;;;11.90;99.90;;;;;;5086617;28;20055;-81
2021/04/29 01:22:20;;;;;;;7.07;4.13;;;11.80;99.90;;;;;;5103784;28;20055;-81
2021/04/29 01:25:07;;;;;;;6.68;4.53;;;11.90;99.90;;;;;;5090770;28;20059;-80
2021/04/29 01:27:34;;;;;;;5.82;3.80;;;11.90;99.90;;;;;;5104413;28;20104;-81
2021/04/29 01:30:09;;;;;;;5.60;3.60;;;11.90;99.90;;;;;;5100420;28;20070;-81
2021/04/29 01:32:35;;;;;;;6.30;4.45;;;11.80;99.90;;;;;;5106287;28;20188;-81
2021/04/29 01:35:02;;;;;;;5.63;3.03;;;11.80;99.90;;;;;;5102025;28;20023;-81
2021/04/29 01:37:28;;;;;;;4.53;3.38;;;11.80;99.90;;;;;;5111601;28;20028;-81
2021/04/29 01:39:54;;;;;;;5.68;3.40;;;11.80;99.90;;;;;;5080911;28;20027;-81
2021/04/29 01:42:20;;;;;;;5.93;3.38;;;11.70;99.90;;;;;;5099838;28;20024;-81
2021/04/29 01:44:46;;;;;;;6.27;3.40;;;11.70;99.90;;;;;;5110901;28;20031;-80
2021/04/29 01:47:11;;;;;;;4.63;3.28;;;11.70;99.90;;;;;;5110903;28;20059;-81
2021/04/29 01:49:37;;;;;;;7.95;3.63;;;11.60;99.90;;;;;;5097642;28;20050;-81
2021/04/29 01:52:04;;;;;;;7.47;3.22;;;11.60;99.90;;;;;;5109317;28;20081;-81
2021/04/29 01:54:29;;;;;;;4.85;3.50;;;11.60;99.90;;;;;;5082326;28;20027;-81
2021/04/29 01:56:55;;;;;;;5.15;3.45;;;11.60;99.90;;;;;;5094272;28;20023;-81
2021/04/29 01:59:22;;;;;;;5.25;3.55;;;11.60;99.90;;;;;;5092377;28;20035;-81
2021/04/29 02:01:47;;;;;;;7.25;3.30;;;11.60;99.90;;;;;;5091865;28;20020;-81
2021/04/29 02:04:13;;;;;;;3.53;3.20;;;11.60;99.90;;;;;;5099074;28;20031;-80
2021/04/29 02:06:40;;;;;;;8.05;3.42;;;11.50;99.90;;;;;;5110478;28;20027;-80
2021/04/29 02:09:07;;;;;;;5.10;3.38;;;11.60;99.90;;;;;;5105133;28;20439;-81
2021/04/29 02:11:37;;;;;;;5.60;3.33;;;11.60;99.90;;;;;;5110427;28;20039;-81
2021/04/29 02:14:06;;;;;;;4.95;3.63;;;11.60;99.90;;;;;;5110269;28;20060;-81
2021/04/29 02:16:42;;;;;;;7.10;3.63;;;11.60;99.90;;;;;;5110347;28;20019;-81
2021/04/29 02:19:08;;;;;;;5.85;3.58;;;11.60;99.90;;;;;;5110286;28;20019;-81
2021/04/29 02:21:41;;;;;;;6.88;3.47;;;11.60;99.90;;;;;;5101132;28;20026;-81
2021/04/29 02:24:08;;;;;;;5.47;4.10;;;11.60;99.90;;;;;;5106211;28;20054;-81
2021/04/29 02:26:34;;;;;;;5.95;3.45;;;11.70;99.90;;;;;;5110609;28;20038;-81
2021/04/29 02:29:04;;;;;;;5.88;3.85;;;11.70;99.90;;;;;;5110377;28;20024;-80
2021/04/29 02:31:29;;;;;;;5.38;3.40;;;11.80;99.90;;;;;;5110546;28;20051;-81
2021/04/29 02:33:55;;;;;;;4.90;3.60;;;11.80;99.90;;;;;;5103923;28;20384;-81
2021/04/29 02:36:21;;;;;;;3.95;2.83;;;11.80;99.90;;;;;;5090490;28;20042;-80
2021/04/29 02:38:48;;;;;;;4.50;3.13;;;11.80;99.90;;;;;;5099365;28;20078;-81
2021/04/29 02:41:13;;;;;;;4.22;3.20;;;11.80;99.90;;;;;;5097140;28;20043;-81
2021/04/29 02:43:39;;;;;;;5.63;2.80;;;11.80;99.90;;;;;;5110364;28;20031;-81
2021/04/29 02:46:04;;;;;;;4.13;2.80;;;11.80;99.90;;;;;;5110126;28;20035;-81
2021/04/29 02:48:30;;;;;;;6.43;2.90;;;11.90;99.90;;;;;;5110508;28;20035;-81
2021/04/29 02:51:00;;;;;;;3.40;2.72;;;11.90;99.90;;;;;;5110151;28;20043;-80
2021/04/29 02:53:26;;;;;;;7.65;2.65;;;11.80;99.90;;;;;;5089973;28;20379;-80
2021/04/29 02:55:51;;;;;;;3.88;2.92;;;11.80;99.90;;;;;;5091727;28;20039;-80
2021/04/29 02:58:17;;;;;;;4.78;2.88;;;11.80;99.90;;;;;;5089461;28;20028;-73
2021/04/29 03:00:45;;;;;;;3.35;2.50;;;11.80;99.90;;;;;;5109120;28;20030;-73
2021/04/29 03:03:11;;;;;;;4.30;2.70;;;11.70;99.90;;;;;;5082823;28;20529;-73
2021/04/29 03:05:38;;;;;;;3.58;2.58;;;11.80;99.90;;;;;;5107295;28;20035;-73
2021/04/29 03:08:04;;;;;;;6.93;2.60;;;11.80;99.90;;;;;;5109778;28;20111;-73
2021/04/29 03:10:30;;;;;;;5.10;2.47;;;11.80;99.90;;;;;;5104869;28;20035;-74
2021/04/29 03:12:57;;;;;;;4.35;2.60;;;11.80;99.90;;;;;;5097701;28;20039;-74
2021/04/29 03:15:22;;;;;;;6.97;2.55;;;11.80;99.90;;;;;;5091437;28;20460;-73
2021/04/29 03:17:48;;;;;;;6.07;2.45;;;11.80;99.90;;;;;;5109798;28;20039;-73
2021/04/29 03:20:14;;;;;;;3.85;2.20;;;11.90;99.90;;;;;;5104136;28;20027;-73
2021/04/29 03:22:40;;;;;;;4.72;1.92;;;12.00;99.90;;;;;;5095036;28;20019;-73
2021/04/29 03:25:06;;;;;;;3.60;2.55;;;12.00;99.90;;;;;;5113638;28;20080;-73
2021/04/29 03:27:32;;;;;;;5.40;2.47;;;12.00;99.90;;;;;;5113302;28;20356;-73
2021/04/29 03:29:57;;;;;;;3.10;2.53;;;12.00;99.90;;;;;;5096990;28;20032;-73
2021/04/29 03:32:23;;;;;;;3.35;2.28;;;12.00;99.90;;;;;;5103925;28;20089;-73
2021/04/29 03:34:49;;;;;;;3.97;2.47;;;12.00;99.90;;;;;;5108441;28;20055;-73
2021/04/29 03:37:16;;;;;;;4.90;2.35;;;11.90;99.90;;;;;;5113475;28;20043;-74
2021/04/29 03:39:41;;;;;;;3.38;2.10;;;11.90;99.90;;;;;;5098277;28;20114;-73
2021/04/29 03:42:07;;;;;;;2.55;2.03;;;11.80;99.90;;;;;;5099802;28;20030;-73
2021/04/29 03:44:34;;;;;;;2.95;2.13;;;11.80;99.90;;;;;;5094763;28;20107;-74
2021/04/29 03:47:01;;;;;;;3.22;1.90;;;11.80;99.90;;;;;;5104267;28;20031;-74
2021/04/29 03:49:26;;;;;;;2.80;1.83;;;11.90;99.90;;;;;;5107003;28;20506;-74
2021/04/29 03:51:52;;;;;;;2.63;1.75;;;11.90;99.90;;;;;;5112794;28;20031;-74
2021/04/29 03:54:17;;;;;;;6.13;1.80;;;11.80;99.90;;;;;;5104310;28;20804;-73
2021/04/29 03:56:43;;;;;;;6.90;1.70;;;11.90;99.90;;;;;;5076300;28;20074;-74
2021/04/29 03:59:08;;;;;;;1.65;1.30;;;11.80;99.90;;;;;;5112785;28;20023;-73
2021/04/29 04:01:34;;;;;;;4.63;1.35;;;11.80;99.90;;;;;;5112679;28;20019;-76
2021/04/29 04:04:00;;;;;;;1.42;1.30;;;11.80;99.90;;;;;;5100432;28;20054;-77
2021/04/29 04:06:25;;;;;;;1.55;1.30;;;11.80;99.90;;;;;;5087050;28;20028;-76
2021/04/29 04:08:51;;;;;;;1.77;1.30;;;11.80;99.90;;;;;;5109013;28;20051;-76
2021/04/29 04:11:16;;;;;;;1.02;0.93;;;11.80;99.90;;;;;;5112692;28;20808;-76
2021/04/29 04:13:42;;;;;;;1.02;0.93;;;11.70;99.90;;;;;;5112516;28;20076;-77
2021/04/29 04:16:11;;;;;;;1.73;1.13;;;11.80;99.90;;;;;;5105615;28;20028;-76
2021/04/29 04:18:37;;;;;;;1.25;1.05;;;11.80;99.90;;;;;;5098810;28;20020;-76
2021/04/29 04:21:02;;;;;;;1.90;1.00;;;11.80;99.90;;;;;;5112208;28;20022;-76
2021/04/29 04:23:28;;;;;;;1.15;0.90;;;11.90;99.90;;;;;;5112547;28;20035;-76
2021/04/29 04:25:54;;;;;;;2.30;1.10;;;11.90;99.90;;;;;;5112203;28;20027;-77
2021/04/29 04:28:19;;;;;;;1.13;1.00;;;12.00;99.90;;;;;;5103650;28;20415;-77
2021/04/29 04:30:45;;;;;;;1.83;1.00;;;12.00;99.90;;;;;;5105074;28;20388;-78
2021/04/29 04:33:10;;;;;;;3.45;1.17;;;12.00;99.90;;;;;;5109049;28;20019;-78
2021/04/29 04:35:36;;;;;;;2.47;1.00;;;12.00;99.90;;;;;;5090035;28;20736;-78
2021/04/29 04:38:01;;;;;;;1.10;1.00;;;11.90;99.90;;;;;;5093630;28;21422;-78
2021/04/29 04:40:27;;;;;;;1.13;0.90;;;11.90;99.90;;;;;;5091821;28;20027;-78
2021/04/29 04:42:52;;;;;;;1.42;1.00;;;12.00;99.90;;;;;;5098358;28;20023;-78
2021/04/29 04:45:18;;;;;;;1.80;1.13;;;12.00;99.90;;;;;;5075362;28;20393;-78
2021/04/29 04:47:43;;;;;;;1.60;0.95;;;12.10;99.90;;;;;;5091755;28;20100;-78
2021/04/29 04:50:10;;;;;;;1.10;1.00;;;12.10;99.90;;;;;;5093981;28;20035;-78
2021/04/29 04:52:35;;;;;;;1.30;0.95;;;12.10;99.90;;;;;;5092301;28;20070;-78
2021/04/29 04:55:01;;;;;;;1.17;1.00;;;12.20;99.90;;;;;;5091597;28;20527;-78
2021/04/29 04:57:27;;;;;;;1.80;1.17;;;12.20;99.90;;;;;;5092297;28;20020;-77
2021/04/29 04:59:52;;;;;;;1.23;1.05;;;12.30;99.90;;;;;;5074765;28;20031;-78
2021/04/29 05:02:18;;;;;;;1.10;1.00;;;12.30;99.90;;;;;;5093683;28;20481;-78
2021/04/29 05:04:43;;;;;;;1.33;1.10;;;12.30;99.90;;;;;;5089604;28;20108;-77
2021/04/29 05:07:11;;;;;;;1.95;1.00;;;12.40;99.90;;;;;;5087458;28;20028;-78
2021/04/29 05:09:37;;;;;;;1.88;1.00;;;12.40;99.90;;;;;;5088480;28;20028;-78
2021/04/29 05:12:02;;;;;;;0.85;0.85;;;12.50;99.90;;;;;;5089576;28;20322;-78
2021/04/29 05:14:29;;;;;;;1.85;1.02;;;12.50;99.90;;;;;;5087154;28;20036;-77
2021/04/29 05:16:55;;;;;;;0.95;0.90;;;12.50;99.90;;;;;;5089206;28;20099;-78
2021/04/29 05:19:21;;;;;;;2.88;1.02;;;12.40;99.90;;;;;;5091408;28;20131;-77
2021/04/29 05:21:47;;;;;;;2.40;1.10;;;12.40;99.90;;;;;;5085591;28;20858;-77
2021/04/29 05:24:12;;;;;;;1.20;1.13;;;12.40;99.90;;;;;;5089394;28;20106;-78
2021/04/29 05:26:38;;;;;;;2.88;0.93;;;12.40;99.90;;;;;;5089579;28;20032;-72
2021/04/29 05:29:04;;;;;;;1.92;1.15;;;12.50;99.90;;;;;;5091198;28;20030;-71
2021/04/29 05:31:29;;;;;;;2.03;1.00;;;12.60;99.90;;;;;;5087676;28;20370;-71
2021/04/29 05:33:55;;;;;;;2.20;1.35;;;12.60;99.90;;;;;;5088414;28;20109;-71
2021/04/29 05:36:21;;;;;;;3.63;1.30;;;12.50;99.90;;;;;;5090888;28;20080;-74
2021/04/29 05:38:46;;;;;;;2.45;1.20;;;12.70;99.90;;;;;;5088457;28;20580;-74
2021/04/29 05:41:12;;;;;;;1.55;1.08;;;12.70;99.90;;;;;;5085177;28;20507;-74
2021/04/29 05:43:38;;;;;;;4.07;1.30;;;12.70;99.90;;;;;;5086287;28;20024;-73
2021/04/29 05:46:05;;;;;;;3.08;1.30;;;12.70;99.90;;;;;;5089502;28;20043;-74
2021/04/29 05:48:30;;;;;;;3.90;1.20;;;12.80;99.90;;;;;;5086948;28;20157;-74
2021/04/29 05:50:57;;;;;;;4.65;1.35;;;12.80;99.90;;;;;;5090135;28;20516;-73
2021/04/29 05:53:23;;;;;;;1.88;1.13;;;12.80;99.90;;;;;;5069182;28;20016;-73
2021/04/29 05:55:48;;;;;;;7.32;1.50;;;12.90;99.90;;;;;;5087203;28;20024;-74
2021/04/29 05:58:14;;;;;;;1.27;1.10;;;12.80;99.90;;;;;;5068067;28;20859;-73
2021/04/29 06:00:39;;;;;;;2.55;1.20;;;12.90;99.90;;;;;;5100470;28;20019;-74
2021/04/29 06:03:05;;;;;;;6.05;1.30;;;12.90;99.90;;;;;;5093570;28;20031;-78
2021/04/29 06:05:31;;;;;;;1.88;1.23;;;12.90;99.90;;;;;;5090761;28;20472;-73
2021/04/29 06:08:01;;;;;;;3.90;1.70;;;12.90;99.90;;;;;;5101764;28;20573;-78
2021/04/29 06:10:28;;;;;;;2.28;1.30;;;12.90;99.90;;;;;;5092688;28;20067;-77
2021/04/29 06:12:55;;;;;;;2.22;1.30;;;13.00;99.90;;;;;;5079426;28;20024;-78
2021/04/29 06:15:21;;;;;;;2.72;1.52;;;12.90;99.90;;;;;;5088051;28;20028;-77
2021/04/29 06:17:48;;;;;;;3.75;1.52;;;13.00;99.90;;;;;;5087656;28;20032;-77
2021/04/29 06:20:14;;;;;;;3.92;1.40;;;13.00;99.90;;;;;;5064449;28;20032;-79
2021/04/29 06:22:44;;;;;;;3.35;1.63;;;12.90;99.90;;;;;;5089929;28;20019;-77
2021/04/29 06:25:11;;;;;;;6.93;1.70;;;12.80;99.90;;;;;;5084683;28;20058;-78
2021/04/29 06:27:37;;;;;;;5.95;1.40;;;12.90;99.90;;;;;;5087205;28;20036;-78
2021/04/29 06:30:05;;;;;;;3.85;1.50;;;13.00;99.90;;;;;;5080916;28;20028;-78
2021/04/29 06:32:30;;;;;;;3.70;1.25;;;13.00;99.90;;;;;;5084326;28;20552;-78
2021/04/29 06:34:56;;;;;;;4.55;1.40;;;12.80;99.90;;;;;;5078243;28;20127;-77
2021/04/29 06:37:21;;;;;;;4.93;1.70;;;12.80;99.90;;;;;;5080498;28;20637;-77
2021/04/29 06:39:47;;;;;;;4.63;1.45;;;12.70;99.90;;;;;;5088499;28;20026;-76
2021/04/29 06:42:14;;;;;;;6.55;1.80;;;12.60;99.90;;;;;;5086739;28;20077;-79
2021/04/29 06:44:40;;;;;;;4.50;1.50;;;12.60;99.90;;;;;;5085261;28;20035;-80
2021/04/29 06:47:07;;;;;;;3.25;1.67;;;12.70;99.90;;;;;;5067015;28;20393;-79
2021/04/29 06:49:32;;;;;;;4.10;1.38;;;12.60;99.90;;;;;;5084646;28;20101;-79
2021/04/29 06:51:58;;;;;;;2.35;1.40;;;12.50;99.90;;;;;;5087893;28;20143;-79
2021/04/29 06:54:24;;;;;;;3.33;1.65;;;12.60;99.90;;;;;;5085879;28;20556;-80
2021/04/29 06:56:49;;;;;;;2.63;1.60;;;12.50;99.90;;;;;;5086699;28;20029;-79
2021/04/29 06:59:15;;;;;;;4.47;1.73;;;12.50;99.90;;;;;;5091903;28;20020;-80
2021/04/29 07:01:40;;;;;;;1.98;1.50;;;12.40;99.90;;;;;;5087727;28;20028;-80
2021/04/29 07:04:06;;;;;;;4.78;1.85;;;12.30;99.90;;;;;;5090734;28;20024;-80
2021/04/29 07:06:32;;;;;;;2.70;1.73;;;12.40;99.90;;;;;;5070124;28;20697;-80
2021/04/29 07:09:01;;;;;;;2.92;1.80;;;12.40;99.90;;;;;;5088522;28;20032;-80
2021/04/29 07:11:28;;;;;;;4.63;1.63;;;12.50;99.90;;;;;;5087089;28;20070;-80
2021/04/29 07:13:53;;;;;;;4.78;1.60;;;12.50;99.90;;;;;;5073035;28;20457;-79
2021/04/29 07:16:19;;;;;;;5.90;1.90;;;12.50;99.90;;;;;;5089652;28;20040;-82
2021/04/29 07:18:45;;;;;;;8.05;2.47;;;12.70;99.90;;;;;;5100665;28;20028;-67
2021/04/29 07:21:10;;;;;;;5.18;1.70;;;12.80;99.90;;;;;;5100412;28;20030;-82
2021/04/29 07:23:36;;;;;;;4.40;2.05;;;12.90;99.90;;;;;;5101124;28;20069;-82
2021/04/29 07:26:02;;;;;;;3.63;1.90;;;13.00;99.90;;;;;;5110185;28;20158;-82
2021/04/29 07:28:27;;;;;;;5.03;1.95;;;13.00;99.90;;;;;;5098697;28;20047;-82
2021/04/29 07:30:54;;;;;;;6.35;2.50;;;12.90;99.90;;;;;;5087957;28;20036;-82
2021/04/29 07:33:19;;;;;;;4.13;2.13;;;12.90;99.90;;;;;;5101232;28;20027;-82
2021/04/29 07:35:45;;;;;;;3.90;1.83;;;12.80;99.90;;;;;;5102085;28;20485;-82
2021/04/29 07:38:11;;;;;;;5.15;1.95;;;12.60;99.90;;;;;;5097116;28;20027;-82
2021/04/29 07:40:37;;;;;;;7.32;2.08;;;12.60;99.90;;;;;;5088658;28;20031;-82
2021/04/29 07:43:02;;;;;;;9.25;2.45;;;12.60;99.90;;;;;;5106325;28;20019;-82
2021/04/29 07:45:29;;;;;;;4.22;1.98;;;12.60;99.90;;;;;;5097000;28;20032;-82
2021/04/29 07:47:54;;;;;;;5.82;2.13;;;12.50;99.90;;;;;;5104086;28;20035;-82
2021/04/29 07:50:20;;;;;;;3.83;1.90;;;12.60;99.90;;;;;;5091170;28;20035;-82
2021/04/29 07:52:46;;;;;;;5.25;2.65;;;12.60;99.90;;;;;;5092936;28;20020;-83
2021/04/29 07:55:13;;;;;;;4.70;2.03;;;12.60;99.90;;;;;;5108922;28;20016;-82
2021/04/29 07:57:39;;;;;;;3.47;1.92;;;12.70;99.90;;;;;;5101651;28;20540;-83
2021/04/29 08:00:07;;;;;;;5.30;2.05;;;12.80;99.90;;;;;;5089846;28;20099;-82
2021/04/29 08:02:32;;;;;;;4.03;2.08;;;12.60;99.90;;;;;;5096688;28;20027;-82
2021/04/29 08:04:58;;;;;;;3.90;2.20;;;12.70;99.90;;;;;;5094954;28;20032;-82
2021/04/29 08:07:23;;;;;;;3.70;2.00;;;12.70;99.90;;;;;;5094313;28;20815;-74
2021/04/29 08:09:49;;;;;;;7.82;2.38;;;12.70;99.90;;;;;;5099420;28;20038;-83
2021/04/29 08:12:15;;;;;;;10.55;2.53;;;12.90;99.90;;;;;;5076757;28;20028;-83
2021/04/29 08:14:40;;;;;;;4.65;2.30;;;12.90;99.90;;;;;;5087430;28;20058;-83
2021/04/29 08:17:06;;;;;;;3.05;1.98;;;12.90;99.90;;;;;;5097580;28;20016;-84
2021/04/29 08:19:31;;;;;;;5.43;2.20;;;12.90;99.90;;;;;;5097781;28;20346;-80
2021/04/29 08:21:57;;;;;;;6.60;2.50;;;12.80;99.90;;;;;;5085850;28;20039;-83
2021/04/29 08:24:23;;;;;;;3.63;2.30;;;12.90;99.90;;;;;;5094633;28;20048;-83
2021/04/29 08:26:48;;;;;;;6.28;2.72;;;12.90;99.90;;;;;;5095045;28;20036;-83
2021/04/29 08:29:14;;;;;;;8.93;2.55;;;13.00;99.90;;;;;;5087308;28;20113;-81
2021/04/29 08:31:40;;;;;;;7.05;2.88;;;13.00;99.90;;;;;;5086779;28;20055;-81
2021/04/29 08:34:06;;;;;;;9.27;3.30;;;13.00;99.90;;;;;;5074559;28;20023;-75
2021/04/29 08:36:31;;;;;;;8.20;3.05;;;12.90;99.90;;;;;;5093663;28;20433;-75
2021/04/29 08:38:59;;;;;;;6.28;3.05;;;13.00;99.90;;;;;;5081008;28;20165;-75
2021/04/29 08:41:25;;;;;;;7.72;3.78;;;12.90;99.90;;;;;;5079071;28;20084;-75
2021/04/29 08:43:51;;;;;;;5.60;2.97;;;12.90;99.90;;;;;;5086190;28;20103;-83
2021/04/29 08:46:16;;;;;;;6.78;2.85;;;12.90;99.90;;;;;;5093968;28;20055;-83
2021/04/29 08:48:42;;;;;;;7.47;3.22;;;13.00;99.90;;;;;;5087511;28;20796;-83
2021/04/29 08:51:09;;;;;;;5.93;2.90;;;13.00;99.90;;;;;;5088621;28;20043;-82
2021/04/29 08:53:36;;;;;;;7.63;3.20;;;12.90;99.90;;;;;;5103760;28;20026;-82
2021/04/29 08:56:01;;;;;;;4.45;3.22;;;12.90;99.90;;;;;;5092132;28;20137;-83
2021/04/29 08:58:27;;;;;;;6.00;2.97;;;12.90;99.90;;;;;;5107417;28;20457;-83
2021/04/29 09:01:00;;;;;;;4.95;2.90;;;12.90;99.90;;;;;;5091266;28;20015;-82
2021/04/29 09:03:30;;;;;;;5.40;2.90;;;13.00;99.90;;;;;;5095987;28;20036;-83
2021/04/29 09:05:57;;;;;;;5.93;3.42;;;13.20;99.90;;;;;;5076230;28;20468;-74
2021/04/29 09:08:30;;;;;;;5.82;3.22;;;13.30;99.90;;;;;;5086797;28;20029;-81
2021/04/29 09:11:13;;;;;;;8.77;3.45;;;13.30;99.90;;;;;;5085669;28;20031;-75
2021/04/29 09:13:41;;;;;;;5.80;3.00;;;13.40;99.90;;;;;;5097540;28;20462;-75
2021/04/29 09:16:12;;;;;;;6.28;3.33;;;13.40;99.90;;;;;;5083723;28;20552;-75
2021/04/29 09:18:40;;;;;;;7.72;3.42;;;13.40;99.90;;;;;;5110436;28;20022;-75
2021/04/29 09:21:14;;;;;;;6.07;3.63;;;13.50;99.90;;;;;;5110595;28;20173;-75
2021/04/29 09:23:46;;;;;;;4.75;3.30;;;13.50;99.90;;;;;;5110921;28;20027;-75
2021/04/29 09:26:14;;;;;;;7.68;3.20;;;13.70;99.90;;;;;;5110613;28;20023;-75
2021/04/29 09:28:44;;;;;;;7.97;3.05;;;13.70;99.90;;;;;;5110989;28;20056;-75
2021/04/29 09:31:21;;;;;;;11.02;4.13;;;13.80;99.90;;;;;;5110466;28;20059;-75
2021/04/29 09:33:52;;;;;;;6.07;3.92;;;14.00;99.90;;;;;;5087609;28;20528;-82
2021/04/29 09:36:25;;;;;;;6.93;3.67;;;14.10;99.90;;;;;;5109167;28;20035;-82
2021/04/29 09:38:52;;;;;;;9.35;3.78;;;14.10;99.90;;;;;;5103394;28;20020;-82
2021/04/29 09:41:41;;;;;;;8.63;4.07;;;14.20;99.90;;;;;;5097114;28;20376;-75
2021/04/29 09:44:09;;;;;;;7.15;4.05;;;14.30;99.90;;;;;;5087751;28;20040;-75
2021/04/29 09:46:53;;;;;;;7.30;3.70;;;14.20;99.90;;;;;;5100427;28;20024;-75
2021/04/29 09:49:30;;;;;;;9.82;4.07;;;14.30;99.90;;;;;;5090088;28;20063;-75
2021/04/29 09:51:58;;;;;;;10.98;4.45;;;14.40;99.90;;;;;;5105207;28;20390;-75
2021/04/29 09:54:29;;;;;;;8.00;4.00;;;14.40;99.90;;;;;;5101335;28;20017;-75
2021/04/29 09:57:04;;;;;;;8.70;3.88;;;14.40;99.90;;;;;;5087435;28;20040;-75
2021/04/29 09:59:31;;;;;;;7.68;4.30;;;14.40;99.90;;;;;;5089194;28;20028;-75
2021/04/29 10:01:58;;;;;;;7.13;4.72;;;14.60;99.90;;;;;;5084929;28;20016;-75
2021/04/29 10:04:25;;;;;;;7.07;3.85;;;14.60;99.90;;;;;;5088596;28;20762;-75
2021/04/29 10:06:53;;;;;;;7.90;4.22;;;14.70;99.90;;;;;;5090668;28;20021;-75
2021/04/29 10:09:23;;;;;;;9.88;4.63;;;14.80;99.90;;;;;;5090490;28;20019;-75
2021/04/29 10:11:50;;;;;;;10.13;4.47;;;14.90;99.90;;;;;;5100081;28;20656;-75
2021/04/29 10:14:17;;;;;;;6.05;3.95;;;15.00;99.90;;;;;;5101376;28;20739;-75
2021/04/29 10:16:43;;;;;;;8.57;3.95;;;15.10;99.90;;;;;;5096170;28;20118;-75
2021/04/29 10:19:09;;;;;;;9.38;3.78;;;15.20;99.90;;;;;;5089089;28;20111;-75
2021/04/29 10:21:35;;;;;;;9.45;4.65;;;15.40;99.90;;;;;;5093726;28;20031;-75
2021/04/29 10:24:02;;;;;;;6.78;4.00;;;15.50;99.90;;;;;;5097637;28;20047;-75
2021/04/29 10:26:31;;;;;;;6.80;4.18;;;15.40;99.90;;;;;;5078643;28;20372;-74
2021/04/29 10:29:00;;;;;;;7.72;4.32;;;15.30;99.90;;;;;;5082095;28;20028;-75
2021/04/29 10:31:30;;;;;;;8.77;4.05;;;15.50;99.90;;;;;;5085454;28;20044;-74
2021/04/29 10:34:01;;;;;;;7.40;3.90;;;15.70;99.90;;;;;;5088214;28;20456;-74
2021/04/29 10:36:43;;;;;;;8.60;4.07;;;15.90;99.90;;;;;;5069120;28;20028;-74
2021/04/29 10:39:16;;;;;;;6.75;3.75;;;16.10;97.40;;;;;;5080992;28;20559;-75
2021/04/29 10:41:45;;;;;;;6.53;3.90;;;16.40;98.70;;;;;;5074394;28;20382;-74
2021/04/29 10:44:17;;;;;;;6.03;4.03;;;16.60;96.70;;;;;;5091198;28;20400;-76
2021/04/29 10:46:44;;;;;;;6.32;3.90;;;16.60;95.10;;;;;;5090357;28;20184;-76
2021/04/29 10:49:14;;;;;;;9.98;3.97;;;16.70;94.70;;;;;;5089898;28;20035;-76
2021/04/29 10:51:44;;;;;;;9.63;3.83;;;16.70;93.30;;;;;;5076253;28;20547;-76
2021/04/29 10:54:19;;;;;;;7.22;3.45;;;16.70;93.00;;;;;;5087836;28;20037;-76
2021/04/29 10:57:10;;;;;;;7.78;4.05;;;16.60;93.10;;;;;;5087625;28;20104;-76
2021/04/29 10:59:47;;;;;;;6.95;4.10;;;16.70;92.40;;;;;;5075070;28;20048;-76
2021/04/29 11:02:36;;;;;;;10.32;4.40;;;16.80;90.60;;;;;;5091047;28;20027;-76
2021/04/29 11:05:04;;;;;;;7.25;4.43;;;16.90;88.80;;;;;;5091636;28;20024;-76
2021/04/29 11:07:30;;;;;;;8.35;4.63;;;16.90;87.90;;;;;;5095284;28;20516;-76
2021/04/29 11:10:01;;;;;;;8.65;4.50;;;16.80;86.90;;;;;;5092080;28;20036;-76
2021/04/29 11:12:48;;;;;;;5.43;3.85;;;16.80;87.10;;;;;;5088912;28;20164;-76
2021/04/29 11:15:43;;;;;;;9.57;3.60;;;16.70;86.20;;;;;;5093452;28;20032;-76
2021/04/29 11:18:11;;;;;;;12.57;4.55;;;16.80;89.00;;;;;;5067390;28;20044;-83
2021/04/29 11:21:00;;;;;;;12.25;3.80;;;17.00;89.40;;;;;;5096868;28;20038;-84
2021/04/29 11:23:39;;;;;;;8.90;3.78;;;17.10;87.10;;;;;;5085432;28;20042;-84
2021/04/29 11:26:06;;;;;;;8.75;4.20;;;17.20;85.70;;;;;;5099490;28;20020;-83
2021/04/29 11:28:32;;;;;;;8.52;4.43;;;17.40;83.10;;;;;;5104355;28;20031;-84
2021/04/29 11:30:58;;;;;;;5.90;3.50;;;17.50;80.20;;;;;;5098648;28;20052;-83
2021/04/29 11:33:47;;;;;;;7.07;3.60;;;17.30;80.60;;;;;;5088745;28;20017;-83
2021/04/29 11:36:26;;;;;;;7.85;3.85;;;17.70;80.50;;;;;;5097146;28;20028;-84
2021/04/29 11:38:53;;;;;;;9.50;3.88;;;17.90;80.30;;;;;;5099316;28;20099;-89
2021/04/29 11:41:19;;;;;;;9.05;4.05;;;18.10;77.70;;;;;;5097851;28;20038;-88
2021/04/29 11:44:05;;;;;;;5.10;3.15;;;18.00;77.60;;;;;;5088672;28;20047;-86
2021/04/29 11:46:33;;;;;;;5.20;3.42;;;18.00;77.10;;;;;;5081644;28;20024;-86
2021/04/29 11:49:01;;;;;;;6.63;3.53;;;18.00;76.70;;;;;;5099274;28;20035;-86
2021/04/29 11:51:28;;;;;;;6.93;3.35;;;17.80;77.10;;;;;;5098630;28;20032;-77
2021/04/29 11:53:59;;;;;;;6.90;3.42;;;17.60;79.30;;;;;;5103205;28;20028;-77
2021/04/29 11:56:46;;;;;;;9.55;3.67;;;17.80;79.80;;;;;;5083682;28;20078;-77
2021/04/29 11:59:12;;;;;;;9.65;3.40;;;17.80;78.10;;;;;;5087890;28;20031;-77
2021/04/29 12:01:39;;;;;;;7.85;3.40;;;18.00;76.30;;;;;;5098874;28;20036;-76
2021/04/29 12:04:16;;;;;;;7.85;3.55;;;18.00;74.50;;;;;;5103721;28;20421;-76
2021/04/29 12:06:59;;;;;;;9.07;3.08;;;17.60;76.10;;;;;;5078456;28;20036;-76
2021/04/29 12:09:26;;;;;;;8.05;3.65;;;17.30;79.10;;;;;;5058745;28;20495;-76
2021/04/29 12:11:52;;;;;;;5.45;3.17;;;17.20;78.50;;;;;;5100713;28;20047;-76
2021/04/29 12:14:23;;;;;;;10.90;3.42;;;17.10;77.20;;;;;;5077260;28;20032;-76
2021/04/29 12:16:51;;;;;;;14.85;3.10;;;17.10;77.90;;;;;;5092693;28;20035;-76
2021/04/29 12:19:25;;;;;;;6.45;3.58;;;17.10;79.60;;;;;;5081286;28;20637;-76
2021/04/29 12:21:51;;;;;;;6.70;3.28;;;17.00;78.80;;;;;;5082470;28;20511;-76
2021/04/29 12:24:17;;;;;;;7.57;3.55;;;17.10;80.00;;;;;;5091007;28;20043;-76
2021/04/29 12:26:44;;;;;;;7.97;3.20;;;16.90;79.30;;;;;;5092109;28;20039;-76
2021/04/29 12:29:14;;;;;;;7.85;3.20;;;16.90;80.50;;;;;;5092275;28;20081;-76
2021/04/29 12:31:55;;;;;;;5.68;3.38;;;16.80;82.20;;;;;;5080646;28;20123;-76
2021/04/29 12:34:22;;;;;;;11.15;3.00;;;16.50;80.00;;;;;;5099321;28;20016;-84
2021/04/29 12:36:52;;;;;;;5.82;3.00;;;16.40;80.20;;;;;;5070037;28;20392;-68
2021/04/29 12:39:21;;;;;;;7.57;3.38;;;16.30;80.60;;;;;;5074587;28;20511;-68
2021/04/29 12:41:55;;;;;;;5.97;2.80;;;16.30;80.60;;;;;;5081861;28;20043;-69
2021/04/29 12:44:45;;;;;;;5.63;3.00;;;16.10;81.40;;;;;;5064682;28;20028;-68
2021/04/29 12:47:20;;;;;;;8.30;2.97;;;16.00;83.30;;;;;;5082739;28;20028;-69
2021/04/29 12:49:57;;;;;;;8.68;3.13;;;15.90;84.80;;;;;;5095064;28;20081;-69